sensor_id;sensor_type;location;lat;lon;timestamp;pressure;altitude;pressure_sealevel;temperature;humidity
11053;BME280;55230;42.602;23.470;2023-12-20T00:02:20;93838.28;;;-1.24;91.79
11053;BME280;55230;42.602;23.470;2023-12-20T00:04:45;93837.28;;;-1.28;91.13
11053;BME280;55230;42.602;23.470;2023-12-20T00:07:10;93829.13;;;-1.25;91.84
11053;BME280;55230;42.602;23.470;2023-12-20T00:09:36;93825.81;;;-1.21;91.31
11053;BME280;55230;42.602;23.470;2023-12-20T00:12:01;93832.41;;;-1.20;92.31
11053;BME280;55230;42.602;23.470;2023-12-20T00:14:27;93826.03;;;-1.17;91.31
11053;BME280;55230;42.602;23.470;2023-12-20T00:16:52;93825.00;;;-1.11;90.84
11053;BME280;55230;42.602;23.470;2023-12-20T00:19:17;93821.94;;;-1.08;90.87
11053;BME280;55230;42.602;23.470;2023-12-20T00:21:43;93821.16;;;-1.03;91.04
11053;BME280;55230;42.602;23.470;2023-12-20T00:24:08;93816.28;;;-1.00;90.67
11053;BME280;55230;42.602;23.470;2023-12-20T00:26:33;93814.56;;;-1.04;91.47
11053;BME280;55230;42.602;23.470;2023-12-20T00:28:59;93805.72;;;-1.12;91.31
11053;BME280;55230;42.602;23.470;2023-12-20T00:31:24;93802.16;;;-1.16;90.73
11053;BME280;55230;42.602;23.470;2023-12-20T00:33:50;93806.78;;;-1.23;90.84
11053;BME280;55230;42.602;23.470;2023-12-20T00:36:15;93796.41;;;-1.32;91.08
11053;BME280;55230;42.602;23.470;2023-12-20T00:38:40;93795.13;;;-1.24;90.70
11053;BME280;55230;42.602;23.470;2023-12-20T00:41:06;93793.09;;;-1.27;90.99
11053;BME280;55230;42.602;23.470;2023-12-20T00:43:31;93781.16;;;-1.27;90.70
11053;BME280;55230;42.602;23.470;2023-12-20T00:45:57;93778.66;;;-1.32;91.86
11053;BME280;55230;42.602;23.470;2023-12-20T00:48:22;93776.59;;;-1.25;90.78
11053;BME280;55230;42.602;23.470;2023-12-20T00:50:48;93772.31;;;-1.29;91.00
11053;BME280;55230;42.602;23.470;2023-12-20T00:53:13;93767.28;;;-1.34;90.63
11053;BME280;55230;42.602;23.470;2023-12-20T00:55:38;93771.28;;;-1.28;90.79
11053;BME280;55230;42.602;23.470;2023-12-20T00:58:04;93774.81;;;-1.24;90.81
11053;BME280;55230;42.602;23.470;2023-12-20T01:00:29;93774.34;;;-1.31;90.36
11053;BME280;55230;42.602;23.470;2023-12-20T01:02:54;93757.63;;;-1.37;92.51
11053;BME280;55230;42.602;23.470;2023-12-20T01:05:20;93768.84;;;-1.44;92.64
11053;BME280;55230;42.602;23.470;2023-12-20T01:07:48;93758.47;;;-1.52;92.70
11053;BME280;55230;42.602;23.470;2023-12-20T01:10:14;93751.63;;;-1.52;91.80
11053;BME280;55230;42.602;23.470;2023-12-20T01:12:40;93752.09;;;-1.50;91.50
11053;BME280;55230;42.602;23.470;2023-12-20T01:15:05;93744.22;;;-1.48;91.89
11053;BME280;55230;42.602;23.470;2023-12-20T01:17:31;93750.06;;;-1.48;91.71
11053;BME280;55230;42.602;23.470;2023-12-20T01:19:56;93741.44;;;-1.47;91.57
11053;BME280;55230;42.602;23.470;2023-12-20T01:22:21;93736.66;;;-1.53;91.79
11053;BME280;55230;42.602;23.470;2023-12-20T01:24:47;93737.44;;;-1.53;92.40
11053;BME280;55230;42.602;23.470;2023-12-20T01:27:12;93736.13;;;-1.50;91.91
11053;BME280;55230;42.602;23.470;2023-12-20T01:29:37;93734.34;;;-1.50;92.34
11053;BME280;55230;42.602;23.470;2023-12-20T01:32:04;93727.75;;;-1.51;91.62
11053;BME280;55230;42.602;23.470;2023-12-20T01:34:29;93719.41;;;-1.51;92.01
11053;BME280;55230;42.602;23.470;2023-12-20T01:36:54;93721.63;;;-1.45;92.13
11053;BME280;55230;42.602;23.470;2023-12-20T01:39:20;93723.91;;;-1.43;91.57
11053;BME280;55230;42.602;23.470;2023-12-20T01:41:45;93717.56;;;-1.46;91.54
11053;BME280;55230;42.602;23.470;2023-12-20T01:44:11;93724.66;;;-1.37;91.73
11053;BME280;55230;42.602;23.470;2023-12-20T01:46:36;93707.91;;;-1.38;91.51
11053;BME280;55230;42.602;23.470;2023-12-20T01:49:02;93699.47;;;-1.34;92.68
11053;BME280;55230;42.602;23.470;2023-12-20T01:51:27;93697.50;;;-1.42;91.53
11053;BME280;55230;42.602;23.470;2023-12-20T01:53:55;93687.41;;;-1.47;91.63
11053;BME280;55230;42.602;23.470;2023-12-20T01:56:21;93685.66;;;-1.52;92.00
11053;BME280;55230;42.602;23.470;2023-12-20T01:58:47;93679.28;;;-1.49;91.94
11053;BME280;55230;42.602;23.470;2023-12-20T02:01:13;93670.44;;;-1.52;91.32
11053;BME280;55230;42.602;23.470;2023-12-20T02:03:40;93680.28;;;-1.45;91.53
11053;BME280;55230;42.602;23.470;2023-12-20T02:06:07;93682.13;;;-1.56;92.01
11053;BME280;55230;42.602;23.470;2023-12-20T02:08:33;93680.34;;;-1.55;92.17
11053;BME280;55230;42.602;23.470;2023-12-20T02:10:58;93670.38;;;-1.42;91.57
11053;BME280;55230;42.602;23.470;2023-12-20T02:13:24;93672.13;;;-1.42;90.81
11053;BME280;55230;42.602;23.470;2023-12-20T02:15:52;93665.56;;;-1.43;91.64
11053;BME280;55230;42.602;23.470;2023-12-20T02:18:17;93664.31;;;-1.51;91.86
11053;BME280;55230;42.602;23.470;2023-12-20T02:20:42;93663.91;;;-1.63;92.33
11053;BME280;55230;42.602;23.470;2023-12-20T02:23:08;93658.03;;;-1.58;91.99
11053;BME280;55230;42.602;23.470;2023-12-20T02:25:33;93667.66;;;-1.55;91.63
11053;BME280;55230;42.602;23.470;2023-12-20T02:27:59;93657.00;;;-1.52;91.69
11053;BME280;55230;42.602;23.470;2023-12-20T02:30:24;93659.56;;;-1.57;91.38
11053;BME280;55230;42.602;23.470;2023-12-20T02:32:51;93655.25;;;-1.57;91.65
11053;BME280;55230;42.602;23.470;2023-12-20T02:35:17;93644.63;;;-1.64;91.02
11053;BME280;55230;42.602;23.470;2023-12-20T02:37:43;93650.00;;;-1.70;91.31
11053;BME280;55230;42.602;23.470;2023-12-20T02:40:08;93641.94;;;-1.78;92.25
11053;BME280;55230;42.602;23.470;2023-12-20T02:42:35;93635.25;;;-1.63;92.49
11053;BME280;55230;42.602;23.470;2023-12-20T02:45:00;93635.06;;;-1.72;91.46
11053;BME280;55230;42.602;23.470;2023-12-20T02:47:25;93636.59;;;-1.76;91.71
11053;BME280;55230;42.602;23.470;2023-12-20T02:49:51;93637.38;;;-1.81;91.73
11053;BME280;55230;42.602;23.470;2023-12-20T02:52:18;93638.19;;;-1.85;92.58
11053;BME280;55230;42.602;23.470;2023-12-20T02:54:43;93639.72;;;-1.89;92.25
11053;BME280;55230;42.602;23.470;2023-12-20T02:57:08;93638.69;;;-1.88;92.23
11053;BME280;55230;42.602;23.470;2023-12-20T02:59:34;93632.63;;;-1.92;91.68
11053;BME280;55230;42.602;23.470;2023-12-20T03:01:59;93630.56;;;-1.85;92.34
11053;BME280;55230;42.602;23.470;2023-12-20T03:04:24;93628.25;;;-1.82;91.86
11053;BME280;55230;42.602;23.470;2023-12-20T03:06:50;93628.31;;;-1.92;92.13
11053;BME280;55230;42.602;23.470;2023-12-20T03:09:15;93625.53;;;-1.90;92.36
11053;BME280;55230;42.602;23.470;2023-12-20T03:11:41;93630.06;;;-1.87;92.32
11053;BME280;55230;42.602;23.470;2023-12-20T03:14:06;93625.53;;;-1.95;91.70
11053;BME280;55230;42.602;23.470;2023-12-20T03:16:31;93631.34;;;-1.90;91.88
11053;BME280;55230;42.602;23.470;2023-12-20T03:18:58;93631.38;;;-1.95;92.31
11053;BME280;55230;42.602;23.470;2023-12-20T03:21:23;93639.97;;;-1.91;92.04
11053;BME280;55230;42.602;23.470;2023-12-20T03:23:49;93624.63;;;-2.09;92.99
11053;BME280;55230;42.602;23.470;2023-12-20T03:26:14;93621.66;;;-1.83;94.29
11053;BME280;55230;42.602;23.470;2023-12-20T03:28:39;93627.28;;;-1.86;94.15
11053;BME280;55230;42.602;23.470;2023-12-20T03:31:05;93627.56;;;-1.92;93.48
11053;BME280;55230;42.602;23.470;2023-12-20T03:33:30;93621.44;;;-1.86;93.69
11053;BME280;55230;42.602;23.470;2023-12-20T03:35:56;93615.16;;;-1.94;94.61
11053;BME280;55230;42.602;23.470;2023-12-20T03:38:22;93619.47;;;-1.99;93.12
11053;BME280;55230;42.602;23.470;2023-12-20T03:40:49;93607.81;;;-2.00;92.75
11053;BME280;55230;42.602;23.470;2023-12-20T03:43:14;93629.69;;;-2.09;93.31
11053;BME280;55230;42.602;23.470;2023-12-20T03:45:40;93623.84;;;-2.05;92.87
11053;BME280;55230;42.602;23.470;2023-12-20T03:48:05;93617.00;;;-2.09;92.89
11053;BME280;55230;42.602;23.470;2023-12-20T03:50:31;93607.94;;;-2.21;92.56
11053;BME280;55230;42.602;23.470;2023-12-20T03:52:56;93615.56;;;-2.21;92.37
11053;BME280;55230;42.602;23.470;2023-12-20T03:55:22;93605.16;;;-2.24;92.22
11053;BME280;55230;42.602;23.470;2023-12-20T03:57:47;93602.63;;;-2.19;92.15
11053;BME280;55230;42.602;23.470;2023-12-20T04:00:13;93608.44;;;-2.19;92.57
11053;BME280;55230;42.602;23.470;2023-12-20T04:02:39;93597.81;;;-2.21;93.21
11053;BME280;55230;42.602;23.470;2023-12-20T04:05:05;93597.81;;;-2.21;92.30
11053;BME280;55230;42.602;23.470;2023-12-20T04:07:31;93600.34;;;-2.21;92.98
11053;BME280;55230;42.602;23.470;2023-12-20T04:09:57;93591.16;;;-2.12;93.27
11053;BME280;55230;42.602;23.470;2023-12-20T04:12:22;93583.06;;;-2.14;93.01
11053;BME280;55230;42.602;23.470;2023-12-20T04:14:48;93591.19;;;-2.17;93.03
11053;BME280;55230;42.602;23.470;2023-12-20T04:17:14;93585.16;;;-2.21;93.46
11053;BME280;55230;42.602;23.470;2023-12-20T04:19:41;93580.53;;;-2.14;93.68
11053;BME280;55230;42.602;23.470;2023-12-20T04:22:06;93579.00;;;-2.15;93.36
11053;BME280;55230;42.602;23.470;2023-12-20T04:24:32;93583.09;;;-2.19;92.91
11053;BME280;55230;42.602;23.470;2023-12-20T04:26:57;93579.56;;;-2.23;94.14
11053;BME280;55230;42.602;23.470;2023-12-20T04:29:28;93580.59;;;-2.24;94.25
11053;BME280;55230;42.602;23.470;2023-12-20T04:36:15;93576.56;;;-2.30;93.69
11053;BME280;55230;42.602;23.470;2023-12-20T04:42:39;93553.59;;;-2.49;93.22
11053;BME280;55230;42.602;23.470;2023-12-20T04:46:02;93577.63;;;-2.41;92.91
11053;BME280;55230;42.602;23.470;2023-12-20T04:52:43;93537.22;;;-2.66;94.01
11053;BME280;55230;42.602;23.470;2023-12-20T05:05:30;93543.44;;;-2.38;93.44
11053;BME280;55230;42.602;23.470;2023-12-20T05:07:58;93542.91;;;-2.35;93.49
11053;BME280;55230;42.602;23.470;2023-12-20T05:10:23;93549.78;;;-2.41;93.61
11053;BME280;55230;42.602;23.470;2023-12-20T05:12:49;93512.34;;;-2.54;93.91
11053;BME280;55230;42.602;23.470;2023-12-20T05:15:14;93542.38;;;-2.32;93.39
11053;BME280;55230;42.602;23.470;2023-12-20T05:17:39;93543.66;;;-2.35;93.32
11053;BME280;55230;42.602;23.470;2023-12-20T05:20:06;93538.81;;;-2.31;93.15
11053;BME280;55230;42.602;23.470;2023-12-20T05:22:32;93534.81;;;-2.37;93.09
11053;BME280;55230;42.602;23.470;2023-12-20T05:24:59;93527.75;;;-2.46;93.70
11053;BME280;55230;42.602;23.470;2023-12-20T05:45:24;93489.78;;;-2.51;92.31
11053;BME280;55230;42.602;23.470;2023-12-20T05:48:25;93510.19;;;-2.32;93.25
11053;BME280;55230;42.602;23.470;2023-12-20T05:50:51;93510.41;;;-2.28;93.02
11053;BME280;55230;42.602;23.470;2023-12-20T05:53:16;93519.78;;;-2.24;92.74
11053;BME280;55230;42.602;23.470;2023-12-20T05:55:41;93507.06;;;-2.19;93.24
11053;BME280;55230;42.602;23.470;2023-12-20T05:58:07;93505.06;;;-2.22;94.12
11053;BME280;55230;42.602;23.470;2023-12-20T06:00:32;93511.59;;;-2.16;94.59
11053;BME280;55230;42.602;23.470;2023-12-20T06:02:57;93507.59;;;-2.22;93.41
11053;BME280;55230;42.602;23.470;2023-12-20T06:05:23;93504.59;;;-2.29;93.29
11053;BME280;55230;42.602;23.470;2023-12-20T06:07:48;93497.78;;;-2.33;91.69
11053;BME280;55230;42.602;23.470;2023-12-20T06:10:16;93486.88;;;-2.34;92.23
11053;BME280;55230;42.602;23.470;2023-12-20T06:12:41;93490.94;;;-2.33;92.08
11053;BME280;55230;42.602;23.470;2023-12-20T06:15:07;93495.28;;;-2.88;92.86
11053;BME280;55230;42.602;23.470;2023-12-20T06:17:32;93497.66;;;-3.06;93.65
11053;BME280;55230;42.602;23.470;2023-12-20T06:19:58;93501.91;;;-2.97;93.97
11053;BME280;55230;42.602;23.470;2023-12-20T06:22:25;93503.09;;;-2.79;93.31
11053;BME280;55230;42.602;23.470;2023-12-20T06:24:50;93506.56;;;-2.65;92.88
11053;BME280;55230;42.602;23.470;2023-12-20T06:27:15;93498.22;;;-2.65;92.51
11053;BME280;55230;42.602;23.470;2023-12-20T06:29:41;93504.63;;;-2.83;91.74
11053;BME280;55230;42.602;23.470;2023-12-20T06:32:07;93511.94;;;-2.71;93.06
11053;BME280;55230;42.602;23.470;2023-12-20T06:34:33;93513.13;;;-2.59;93.10
11053;BME280;55230;42.602;23.470;2023-12-20T06:36:58;93493.78;;;-2.44;93.69
11053;BME280;55230;42.602;23.470;2023-12-20T06:39:24;93506.97;;;-2.48;93.25
11053;BME280;55230;42.602;23.470;2023-12-20T06:41:49;93507.09;;;-2.24;93.93
11053;BME280;55230;42.602;23.470;2023-12-20T06:44:14;93496.06;;;-2.04;93.62
11053;BME280;55230;42.602;23.470;2023-12-20T06:46:40;93495.09;;;-1.79;93.58
11053;BME280;55230;42.602;23.470;2023-12-20T06:49:05;93501.06;;;-1.65;93.85
11053;BME280;55230;42.602;23.470;2023-12-20T06:51:31;93489.66;;;-1.38;93.59
11053;BME280;55230;42.602;23.470;2023-12-20T06:54:10;93487.16;;;-1.44;91.57
11053;BME280;55230;42.602;23.470;2023-12-20T07:41:35;93459.31;;;-1.25;92.18
11053;BME280;55230;42.602;23.470;2023-12-20T07:44:01;93462.31;;;-0.99;91.08
11053;BME280;55230;42.602;23.470;2023-12-20T07:46:26;93458.56;;;-2.41;92.24
11053;BME280;55230;42.602;23.470;2023-12-20T07:48:52;93460.47;;;-2.67;94.37
11053;BME280;55230;42.602;23.470;2023-12-20T07:51:17;93461.50;;;-2.68;93.36
11053;BME280;55230;42.602;23.470;2023-12-20T07:53:42;93459.84;;;-2.88;94.22
11053;BME280;55230;42.602;23.470;2023-12-20T07:56:18;93453.91;;;-1.95;94.44
11053;BME280;55230;42.602;23.470;2023-12-20T07:58:45;93443.53;;;-1.46;93.36
11053;BME280;55230;42.602;23.470;2023-12-20T08:01:11;93456.59;;;-1.10;91.51
11053;BME280;55230;42.602;23.470;2023-12-20T08:03:37;93451.31;;;-1.61;90.79
11053;BME280;55230;42.602;23.470;2023-12-20T08:06:03;93449.38;;;-1.21;92.66
11053;BME280;55230;42.602;23.470;2023-12-20T08:08:28;93446.91;;;-2.08;91.50
11053;BME280;55230;42.602;23.470;2023-12-20T08:10:54;93451.41;;;-1.71;92.64
11053;BME280;55230;42.602;23.470;2023-12-20T08:13:19;93436.44;;;-1.44;90.80
11053;BME280;55230;42.602;23.470;2023-12-20T08:15:45;93435.09;;;-0.37;90.60
11053;BME280;55230;42.602;23.470;2023-12-20T08:18:10;93424.53;;;0.76;84.87
11053;BME280;55230;42.602;23.470;2023-12-20T08:20:35;93422.28;;;0.88;82.28
11053;BME280;55230;42.602;23.470;2023-12-20T08:23:01;93429.22;;;-0.19;87.91
11053;BME280;55230;42.602;23.470;2023-12-20T08:25:26;93429.44;;;0.31;86.82
11053;BME280;55230;42.602;23.470;2023-12-20T08:27:52;93427.22;;;-0.54;88.43
11053;BME280;55230;42.602;23.470;2023-12-20T08:30:18;93435.59;;;-1.63;91.43
11053;BME280;55230;42.602;23.470;2023-12-20T08:32:46;93431.06;;;-2.19;92.68
11053;BME280;55230;42.602;23.470;2023-12-20T08:35:11;93415.53;;;-2.12;92.31
11053;BME280;55230;42.602;23.470;2023-12-20T08:37:37;93415.69;;;-1.74;90.04
11053;BME280;55230;42.602;23.470;2023-12-20T08:40:02;93406.53;;;-1.70;90.13
11053;BME280;55230;42.602;23.470;2023-12-20T08:42:27;93403.97;;;-1.47;90.29
11053;BME280;55230;42.602;23.470;2023-12-20T08:44:57;93412.94;;;-0.18;87.34
11053;BME280;55230;42.602;23.470;2023-12-20T08:47:23;93394.78;;;0.03;85.24
11053;BME280;55230;42.602;23.470;2023-12-20T08:49:48;93392.50;;;0.33;83.18
11053;BME280;55230;42.602;23.470;2023-12-20T08:52:14;93406.06;;;-0.17;87.23
11053;BME280;55230;42.602;23.470;2023-12-20T08:54:39;93393.66;;;-0.05;84.79
11053;BME280;55230;42.602;23.470;2023-12-20T08:57:04;93405.63;;;-0.38;86.66
11053;BME280;55230;42.602;23.470;2023-12-20T08:59:32;93398.06;;;-0.43;85.67
11053;BME280;55230;42.602;23.470;2023-12-20T09:01:57;93379.53;;;-1.00;89.11
11053;BME280;55230;42.602;23.470;2023-12-20T09:04:23;93380.63;;;-1.25;90.22
11053;BME280;55230;42.602;23.470;2023-12-20T09:06:48;93368.19;;;-1.45;91.04
11053;BME280;55230;42.602;23.470;2023-12-20T09:09:14;93367.13;;;-1.63;92.19
11053;BME280;55230;42.602;23.470;2023-12-20T09:11:40;93364.91;;;-1.46;92.26
11053;BME280;55230;42.602;23.470;2023-12-20T09:14:05;93359.25;;;-1.19;90.67
11053;BME280;55230;42.602;23.470;2023-12-20T09:16:31;93359.53;;;-1.20;89.57
11053;BME280;55230;42.602;23.470;2023-12-20T09:18:57;93351.28;;;-1.12;90.28
11053;BME280;55230;42.602;23.470;2023-12-20T09:21:22;93336.09;;;-0.98;90.04
11053;BME280;55230;42.602;23.470;2023-12-20T09:23:47;93331.75;;;-0.60;88.11
11053;BME280;55230;42.602;23.470;2023-12-20T09:26:13;93327.59;;;-1.26;90.14
11053;BME280;55230;42.602;23.470;2023-12-20T09:28:38;93318.31;;;-0.80;89.33
11053;BME280;55230;42.602;23.470;2023-12-20T09:31:05;93316.91;;;-1.04;90.74
11053;BME280;55230;42.602;23.470;2023-12-20T09:33:32;93311.41;;;-0.93;90.24
11053;BME280;55230;42.602;23.470;2023-12-20T09:35:57;93301.09;;;-0.50;89.00
11053;BME280;55230;42.602;23.470;2023-12-20T09:38:23;93285.84;;;-0.50;89.96
11053;BME280;55230;42.602;23.470;2023-12-20T09:40:48;93294.16;;;0.51;85.15
11053;BME280;55230;42.602;23.470;2023-12-20T09:43:15;93274.81;;;1.00;83.42
11053;BME280;55230;42.602;23.470;2023-12-20T09:45:46;93281.16;;;1.56;82.49
11053;BME280;55230;42.602;23.470;2023-12-20T09:48:12;93269.78;;;2.01;80.26
11053;BME280;55230;42.602;23.470;2023-12-20T09:50:40;93282.00;;;0.84;83.28
11053;BME280;55230;42.602;23.470;2023-12-20T09:53:08;93280.47;;;1.42;83.12
11053;BME280;55230;42.602;23.470;2023-12-20T09:55:35;93274.00;;;1.13;83.49
11053;BME280;55230;42.602;23.470;2023-12-20T09:58:01;93262.16;;;1.39;83.71
11053;BME280;55230;42.602;23.470;2023-12-20T10:00:27;93253.72;;;1.61;81.34
11053;BME280;55230;42.602;23.470;2023-12-20T10:05:18;93250.88;;;2.94;80.77
11053;BME280;55230;42.602;23.470;2023-12-20T10:07:47;93252.63;;;2.41;77.61
11053;BME280;55230;42.602;23.470;2023-12-20T10:10:13;93247.34;;;1.19;82.82
11053;BME280;55230;42.602;23.470;2023-12-20T10:12:40;93242.69;;;1.44;83.24
11053;BME280;55230;42.602;23.470;2023-12-20T10:15:06;93234.06;;;1.00;83.14
11053;BME280;55230;42.602;23.470;2023-12-20T10:17:31;93236.50;;;0.83;84.52
11053;BME280;55230;42.602;23.470;2023-12-20T10:19:57;93232.22;;;0.06;87.55
11053;BME280;55230;42.602;23.470;2023-12-20T10:22:23;93240.69;;;-0.12;87.38
11053;BME280;55230;42.602;23.470;2023-12-20T10:24:48;93236.72;;;0.23;87.57
11053;BME280;55230;42.602;23.470;2023-12-20T10:27:14;93225.97;;;0.26;87.95
11053;BME280;55230;42.602;23.470;2023-12-20T10:29:39;93222.03;;;1.45;83.10
11053;BME280;55230;42.602;23.470;2023-12-20T10:32:25;93227.13;;;1.23;85.33
11053;BME280;55230;42.602;23.470;2023-12-20T10:34:55;93208.53;;;1.53;81.63
11053;BME280;55230;42.602;23.470;2023-12-20T10:37:20;93203.59;;;1.96;79.73
11053;BME280;55230;42.602;23.470;2023-12-20T10:39:51;93203.06;;;1.29;82.36
11053;BME280;55230;42.602;23.470;2023-12-20T10:42:24;93195.63;;;1.89;79.63
11053;BME280;55230;42.602;23.470;2023-12-20T10:44:51;93198.13;;;1.72;80.37
11053;BME280;55230;42.602;23.470;2023-12-20T10:47:19;93194.22;;;1.66;80.99
11053;BME280;55230;42.602;23.470;2023-12-20T10:49:45;93181.94;;;1.85;79.43
11053;BME280;55230;42.602;23.470;2023-12-20T10:52:11;93190.91;;;1.03;82.44
11053;BME280;55230;42.602;23.470;2023-12-20T10:54:38;93180.94;;;1.16;82.59
11053;BME280;55230;42.602;23.470;2023-12-20T10:57:05;93182.00;;;1.15;83.20
11053;BME280;55230;42.602;23.470;2023-12-20T10:59:33;93175.91;;;1.72;80.79
11053;BME280;55230;42.602;23.470;2023-12-20T11:02:02;93163.28;;;2.50;79.21
11053;BME280;55230;42.602;23.470;2023-12-20T11:07:33;93155.22;;;1.74;81.90
11053;BME280;55230;42.602;23.470;2023-12-20T11:12:45;93153.28;;;1.80;80.33
11053;BME280;55230;42.602;23.470;2023-12-20T11:15:14;93143.75;;;2.54;79.94
11053;BME280;55230;42.602;23.470;2023-12-20T11:17:40;93122.81;;;3.42;74.35
11053;BME280;55230;42.602;23.470;2023-12-20T11:20:07;93115.97;;;3.84;73.34
11053;BME280;55230;42.602;23.470;2023-12-20T11:22:35;93122.88;;;2.52;77.65
11053;BME280;55230;42.602;23.470;2023-12-20T11:25:09;93115.84;;;2.32;78.66
11053;BME280;55230;42.602;23.470;2023-12-20T11:27:36;93127.72;;;1.54;81.34
11053;BME280;55230;42.602;23.470;2023-12-20T11:30:05;93126.38;;;1.48;82.24
11053;BME280;55230;42.602;23.470;2023-12-20T11:32:35;93115.84;;;1.40;81.48
11053;BME280;55230;42.602;23.470;2023-12-20T11:35:17;93113.22;;;1.23;82.95
11053;BME280;55230;42.602;23.470;2023-12-20T11:37:43;93105.81;;;1.44;82.98
11053;BME280;55230;42.602;23.470;2023-12-20T11:40:14;93099.31;;;1.95;80.32
11053;BME280;55230;42.602;23.470;2023-12-20T11:42:45;93097.78;;;1.77;80.61
11053;BME280;55230;42.602;23.470;2023-12-20T12:45:26;92993.59;;;3.44;74.62
11053;BME280;55230;42.602;23.470;2023-12-20T12:47:52;92970.00;;;3.60;74.17
11053;BME280;55230;42.602;23.470;2023-12-20T12:50:20;92967.88;;;3.62;74.10
11053;BME280;55230;42.602;23.470;2023-12-20T12:52:49;92983.00;;;2.66;76.60
11053;BME280;55230;42.602;23.470;2023-12-20T12:55:14;92966.00;;;2.70;77.81
11053;BME280;55230;42.602;23.470;2023-12-20T12:57:40;92994.84;;;3.09;77.56
11053;BME280;55230;42.602;23.470;2023-12-20T13:00:11;92997.09;;;3.02;76.33
11053;BME280;55230;42.602;23.470;2023-12-20T13:02:39;92962.75;;;2.53;77.88
11053;BME280;55230;42.602;23.470;2023-12-20T13:05:08;92991.38;;;2.29;79.11
11053;BME280;55230;42.602;23.470;2023-12-20T13:07:34;92999.78;;;2.03;80.74
11053;BME280;55230;42.602;23.470;2023-12-20T13:09:59;93003.75;;;2.56;78.96
11053;BME280;55230;42.602;23.470;2023-12-20T13:12:25;92997.22;;;2.85;77.45
11053;BME280;55230;42.602;23.470;2023-12-20T13:14:51;92996.75;;;2.83;77.34
11053;BME280;55230;42.602;23.470;2023-12-20T13:17:16;92996.19;;;2.04;80.31
11053;BME280;55230;42.602;23.470;2023-12-20T13:19:42;92994.25;;;2.01;80.98
11053;BME280;55230;42.602;23.470;2023-12-20T13:22:07;92985.81;;;2.27;80.70
11053;BME280;55230;42.602;23.470;2023-12-20T13:24:33;92983.66;;;2.46;79.20
11053;BME280;55230;42.602;23.470;2023-12-20T13:27:00;92986.47;;;1.98;81.21
11053;BME280;55230;42.602;23.470;2023-12-20T13:29:25;92980.84;;;2.30;78.97
11053;BME280;55230;42.602;23.470;2023-12-20T13:31:53;92986.66;;;2.48;78.28
11053;BME280;55230;42.602;23.470;2023-12-20T13:34:19;92967.09;;;2.61;78.42
11053;BME280;55230;42.602;23.470;2023-12-20T13:36:44;92976.66;;;2.72;77.98
11053;BME280;55230;42.602;23.470;2023-12-20T13:39:15;92972.94;;;2.15;80.41
11053;BME280;55230;42.602;23.470;2023-12-20T13:41:41;92982.97;;;2.20;80.54
11053;BME280;55230;42.602;23.470;2023-12-20T13:44:07;92960.84;;;2.50;79.30
11053;BME280;55230;42.602;23.470;2023-12-20T13:46:32;92970.41;;;2.53;78.52
11053;BME280;55230;42.602;23.470;2023-12-20T13:48:57;92962.97;;;2.77;77.93
11053;BME280;55230;42.602;23.470;2023-12-20T13:51:23;92962.97;;;2.77;74.94
11053;BME280;55230;42.602;23.470;2023-12-20T13:53:48;92960.13;;;2.70;77.77
11053;BME280;55230;42.602;23.470;2023-12-20T13:56:17;92957.84;;;3.06;75.57
11053;BME280;55230;42.602;23.470;2023-12-20T13:58:43;92949.47;;;3.27;73.07
11053;BME280;55230;42.602;23.470;2023-12-20T14:01:09;92943.91;;;3.25;72.17
11053;BME280;55230;42.602;23.470;2023-12-20T14:03:35;92954.53;;;3.14;71.74
11053;BME280;55230;42.602;23.470;2023-12-20T14:06:01;92952.66;;;2.94;73.39
11053;BME280;55230;42.602;23.470;2023-12-20T14:08:26;92959.78;;;2.42;77.60
11053;BME280;55230;42.602;23.470;2023-12-20T14:10:52;92952.78;;;2.30;78.97
11053;BME280;55230;42.602;23.470;2023-12-20T14:13:18;92942.78;;;2.55;76.79
11053;BME280;55230;42.602;23.470;2023-12-20T14:15:43;92947.38;;;2.23;78.27
11053;BME280;55230;42.602;23.470;2023-12-20T14:18:09;92954.53;;;1.57;81.35
11053;BME280;55230;42.602;23.470;2023-12-20T14:20:35;92951.03;;;1.88;80.17
11053;BME280;55230;42.602;23.470;2023-12-20T14:23:04;92942.50;;;2.01;79.55
11053;BME280;55230;42.602;23.470;2023-12-20T14:25:29;92943.66;;;2.03;79.38
11053;BME280;55230;42.602;23.470;2023-12-20T14:27:56;92942.19;;;1.85;79.95
11053;BME280;55230;42.602;23.470;2023-12-20T14:30:22;92934.56;;;1.59;82.44
11053;BME280;55230;42.602;23.470;2023-12-20T14:32:47;92935.00;;;1.70;81.04
11053;BME280;55230;42.602;23.470;2023-12-20T14:35:14;92950.94;;;1.50;83.42
11053;BME280;55230;42.602;23.470;2023-12-20T14:37:39;92949.28;;;1.62;81.44
11053;BME280;55230;42.602;23.470;2023-12-20T14:40:06;92944.59;;;1.13;83.24
11053;BME280;55230;42.602;23.470;2023-12-20T14:42:35;92942.06;;;1.30;83.42
11053;BME280;55230;42.602;23.470;2023-12-20T14:45:01;92938.94;;;1.33;84.20
11053;BME280;55230;42.602;23.470;2023-12-20T14:47:26;92946.59;;;1.33;83.98
11053;BME280;55230;42.602;23.470;2023-12-20T14:49:51;92960.50;;;1.35;81.95
11053;BME280;55230;42.602;23.470;2023-12-20T14:52:18;92957.53;;;1.33;82.19
11053;BME280;55230;42.602;23.470;2023-12-20T14:54:44;92960.47;;;1.18;83.04
11053;BME280;55230;42.602;23.470;2023-12-20T14:57:09;92964.94;;;1.04;82.78
11053;BME280;55230;42.602;23.470;2023-12-20T14:59:35;92963.16;;;1.04;83.73
11053;BME280;55230;42.602;23.470;2023-12-20T15:02:00;92960.19;;;1.11;83.37
11053;BME280;55230;42.602;23.470;2023-12-20T15:04:30;92962.13;;;1.14;83.14
11053;BME280;55230;42.602;23.470;2023-12-20T15:06:56;92960.56;;;0.87;84.33
11053;BME280;55230;42.602;23.470;2023-12-20T15:09:21;92961.00;;;0.81;83.82
11053;BME280;55230;42.602;23.470;2023-12-20T15:11:47;92964.44;;;0.85;84.65
11053;BME280;55230;42.602;23.470;2023-12-20T15:14:12;92965.53;;;1.01;84.32
11053;BME280;55230;42.602;23.470;2023-12-20T15:16:43;92966.41;;;0.88;83.78
11053;BME280;55230;42.602;23.470;2023-12-20T15:19:08;92951.72;;;0.85;84.43
11053;BME280;55230;42.602;23.470;2023-12-20T15:21:34;92949.97;;;0.94;83.96
11053;BME280;55230;42.602;23.470;2023-12-20T15:24:05;92950.66;;;0.86;84.58